Gaschem Phoenix — ELUO6 — position and weather

sailwx.info

Track history (hours):
 
Tides and Currents Weather Stations Pressure Air Temp Water Temp Dewpoint Dewpoint Depression Visibility Wind Speed Wind Dir Waves Ship Positions

Gaschem Phoenix

Last reported at 2017-Feb-20 23:33 UTC. Time now 2017-Feb-27 15:54 UTC.
Position N 31°24' E 121°33'.

Length 100 m; draft 6 m.

Type: Ship. MMSI: 636090235.

Date/timePositionNaut miles runAvg speedWind from/ knotsBaromVisibWave heightAir tempDewpointWater temp
2017-Feb-20 23:33N 31°24' E 121°33'1010.5
2017-Feb-20 22:33N 31°31' E 121°24'5 4.6
2017-Feb-20 21:31N 31°34' E 121°20'0 0.1
2017-Feb-20 20:33N 31°34' E 121°20'0 0.0
2017-Feb-20 19:33N 31°34' E 121°20'0 0.0
2017-Feb-20 18:32N 31°34' E 121°20'0 0.0
2017-Feb-20 17:32N 31°34' E 121°20'0 0.0
2017-Feb-20 16:33N 31°34' E 121°20'8 7.9
2017-Feb-20 15:33N 31°39' E 121°13'1313.2
2017-Feb-20 14:33N 31°47' E 120°60'2510.9
2017-Feb-20 12:14N 32°00' E 120°35'912.5
2017-Feb-20 11:33N 32°01' E 120°24'4 0.1
2017-Feb-18 23:31N 32°04' E 120°28'33 2.8
2017-Feb-18 11:30N 31°47' E 121°01'1313.2
2017-Feb-18 10:33N 31°39' E 121°13'1212.4
2017-Feb-18 09:33N 31°31' E 121°24'1110.5
2017-Feb-18 08:33N 31°24' E 121°33'10 9.6
2017-Feb-18 07:33N 31°19' E 121°43'1312.8
2017-Feb-18 06:33N 31°09' E 121°53'1010.3
2017-Feb-18 05:33N 31°05' E 122°03'1111.0
2017-Feb-18 04:33N 31°03' E 122°16'  
2017-Feb-14 00:33N 35°06' E 139°44'1111.4
2017-Feb-13 23:33N 35°18' E 139°44'1111.1
2017-Feb-13 22:33N 35°28' E 139°47'3 2.9
2017-Feb-13 21:33N 35°31' E 139°46'0 0.0
2017-Feb-13 07:21N 35°31' E 139°46'4 5.5
2017-Feb-13 06:34N 35°28' E 139°42'2 1.6
2017-Feb-13 05:31N 35°28' E 139°44'0 0.1
2017-Feb-13 04:31N 35°28' E 139°44'0 0.0
2017-Feb-13 03:33N 35°28' E 139°44'0 0.0
2017-Feb-13 02:33N 35°28' E 139°44'0 0.0
2017-Feb-13 01:32N 35°28' E 139°44'0 0.0
2017-Feb-13 00:32N 35°28' E 139°44'0 0.0
2017-Feb-12 23:28N 35°28' E 139°44'0 0.1
2017-Feb-12 22:31N 35°28' E 139°44'0 0.1
2017-Feb-12 21:28N 35°28' E 139°44'0 0.0
2017-Feb-12 20:33N 35°28' E 139°44'0 0.0
2017-Feb-12 19:33N 35°28' E 139°44'0 0.1
2017-Feb-12 18:32N 35°28' E 139°44'0 0.1
2017-Feb-12 17:32N 35°28' E 139°44'0 0.0
2017-Feb-12 16:31N 35°28' E 139°44'0 0.0
2017-Feb-12 15:31N 35°28' E 139°44'0 0.0
2017-Feb-12 14:30N 35°28' E 139°44'0 0.0
2017-Feb-12 13:33N 35°28' E 139°44'0 0.0
2017-Feb-12 12:33N 35°28' E 139°44'0 0.0
2017-Feb-12 11:32N 35°28' E 139°44'0 0.1
2017-Feb-12 10:32N 35°28' E 139°44'0 0.0
2017-Feb-12 09:28N 35°28' E 139°44'0 0.1
2017-Feb-12 08:31N 35°28' E 139°44'0 0.0
2017-Feb-12 07:33N 35°28' E 139°44'0 0.0
2017-Feb-12 06:33N 35°28' E 139°44'0 0.1
2017-Feb-12 05:33N 35°28' E 139°44'0 0.0
2017-Feb-12 04:32N 35°28' E 139°44'0 0.0
2017-Feb-12 03:32N 35°28' E 139°44'0 0.1
2017-Feb-12 02:31N 35°28' E 139°44'0 0.0
2017-Feb-12 01:31N 35°28' E 139°44'0 0.2
2017-Feb-12 00:33N 35°28' E 139°44'8 8.3
2017-Feb-11 23:33N 35°19' E 139°44'1111.0
2017-Feb-11 22:33N 35°08' E 139°46'10 9.9
2017-Feb-11 21:32N 35°01' E 139°37'  
Track history (hours):
 
Tides and Currents Weather Stations Pressure Air Temp Water Temp Dewpoint Dewpoint Depression Visibility Wind Speed Wind Dir Waves Ship Positions

Gaschem Phoenix

Last reported at 2017-Feb-20 23:33 UTC. Time now 2017-Feb-27 15:54 UTC.
Position N 31°24' E 121°33'.

Length 100 m; draft 6 m.

Type: Ship. MMSI: 636090235.

Date/timePositionNaut miles runAvg speedWind from/ knotsBaromVisibWave heightAir tempDewpointWater temp
2017-Feb-20 23:33N 31°24' E 121°33'1010.5
2017-Feb-20 22:33N 31°31' E 121°24'5 4.6
2017-Feb-20 21:31N 31°34' E 121°20'0 0.1
2017-Feb-20 20:33N 31°34' E 121°20'0 0.0
2017-Feb-20 19:33N 31°34' E 121°20'0 0.0
2017-Feb-20 18:32N 31°34' E 121°20'0 0.0
2017-Feb-20 17:32N 31°34' E 121°20'0 0.0
2017-Feb-20 16:33N 31°34' E 121°20'8 7.9
2017-Feb-20 15:33N 31°39' E 121°13'1313.2
2017-Feb-20 14:33N 31°47' E 120°60'2510.9
2017-Feb-20 12:14N 32°00' E 120°35'912.5
2017-Feb-20 11:33N 32°01' E 120°24'4 0.1
2017-Feb-18 23:31N 32°04' E 120°28'33 2.8
2017-Feb-18 11:30N 31°47' E 121°01'1313.2
2017-Feb-18 10:33N 31°39' E 121°13'1212.4
2017-Feb-18 09:33N 31°31' E 121°24'1110.5
2017-Feb-18 08:33N 31°24' E 121°33'10 9.6
2017-Feb-18 07:33N 31°19' E 121°43'1312.8
2017-Feb-18 06:33N 31°09' E 121°53'1010.3
2017-Feb-18 05:33N 31°05' E 122°03'1111.0
2017-Feb-18 04:33N 31°03' E 122°16'  
2017-Feb-14 00:33N 35°06' E 139°44'1111.4
2017-Feb-13 23:33N 35°18' E 139°44'1111.1
2017-Feb-13 22:33N 35°28' E 139°47'3 2.9
2017-Feb-13 21:33N 35°31' E 139°46'0 0.0
2017-Feb-13 07:21N 35°31' E 139°46'4 5.5
2017-Feb-13 06:34N 35°28' E 139°42'2 1.6
2017-Feb-13 05:31N 35°28' E 139°44'0 0.1
2017-Feb-13 04:31N 35°28' E 139°44'0 0.0
2017-Feb-13 03:33N 35°28' E 139°44'0 0.0
2017-Feb-13 02:33N 35°28' E 139°44'0 0.0
2017-Feb-13 01:32N 35°28' E 139°44'0 0.0
2017-Feb-13 00:32N 35°28' E 139°44'0 0.0
2017-Feb-12 23:28N 35°28' E 139°44'0 0.1
2017-Feb-12 22:31N 35°28' E 139°44'0 0.1
2017-Feb-12 21:28N 35°28' E 139°44'0 0.0
2017-Feb-12 20:33N 35°28' E 139°44'0 0.0
2017-Feb-12 19:33N 35°28' E 139°44'0 0.1
2017-Feb-12 18:32N 35°28' E 139°44'0 0.1
2017-Feb-12 17:32N 35°28' E 139°44'0 0.0
2017-Feb-12 16:31N 35°28' E 139°44'0 0.0
2017-Feb-12 15:31N 35°28' E 139°44'0 0.0
2017-Feb-12 14:30N 35°28' E 139°44'0 0.0
2017-Feb-12 13:33N 35°28' E 139°44'0 0.0
2017-Feb-12 12:33N 35°28' E 139°44'0 0.0
2017-Feb-12 11:32N 35°28' E 139°44'0 0.1
2017-Feb-12 10:32N 35°28' E 139°44'0 0.0
2017-Feb-12 09:28N 35°28' E 139°44'0 0.1
2017-Feb-12 08:31N 35°28' E 139°44'0 0.0
2017-Feb-12 07:33N 35°28' E 139°44'0 0.0
2017-Feb-12 06:33N 35°28' E 139°44'0 0.1
2017-Feb-12 05:33N 35°28' E 139°44'0 0.0
2017-Feb-12 04:32N 35°28' E 139°44'0 0.0
2017-Feb-12 03:32N 35°28' E 139°44'0 0.1
2017-Feb-12 02:31N 35°28' E 139°44'0 0.0
2017-Feb-12 01:31N 35°28' E 139°44'0 0.2
2017-Feb-12 00:33N 35°28' E 139°44'8 8.3
2017-Feb-11 23:33N 35°19' E 139°44'1111.0
2017-Feb-11 22:33N 35°08' E 139°46'10 9.9
2017-Feb-11 21:32N 35°01' E 139°37'  

Dump ship's entire track history